Time;durP1;ratioP1;P1;durP2;ratioP2;P2;SDS_P1;SDS_P2;PMS_P1;PMS_P2;Temp;Humidity;BMP_temperature;BMP_pressure;BME280_temperature;BME280_humidity;BME280_pressure;Samples;Min_cycle;Max_cycle;Signal;HPM_P1;HPM_P2
2021/04/30 00:03:59;;;;;;;3.60;2.00;;;20.50;32.00;;;;;;8395445;28;20112;-58
2021/04/30 00:08:00;;;;;;;2.93;2.47;;;20.40;31.90;;;;;;8391843;28;20059;-58
2021/04/30 00:12:00;;;;;;;2.25;1.83;;;20.40;31.90;;;;;;8389411;28;20048;-58
2021/04/30 00:16:01;;;;;;;5.37;2.03;;;20.40;31.90;;;;;;8380942;28;20154;-58
2021/04/30 00:20:02;;;;;;;4.22;2.03;;;20.40;31.90;;;;;;8360051;28;20029;-58
2021/04/30 00:24:05;;;;;;;2.15;1.63;;;20.40;31.80;;;;;;8393827;28;20037;-58
2021/04/30 00:28:06;;;;;;;2.90;1.98;;;20.40;31.80;;;;;;8381105;28;20036;-58
2021/04/30 00:32:06;;;;;;;2.87;1.90;;;20.40;31.80;;;;;;8375493;28;20056;-58
2021/04/30 00:36:07;;;;;;;2.70;2.03;;;20.40;31.80;;;;;;8389444;28;20021;-58
2021/04/30 00:40:09;;;;;;;2.03;1.83;;;20.40;32.00;;;;;;8395282;28;20531;-58
2021/04/30 00:44:10;;;;;;;3.00;1.83;;;20.40;31.80;;;;;;8362893;28;20037;-58
2021/04/30 00:48:11;;;;;;;2.20;2.00;;;20.40;32.30;;;;;;8375098;28;20477;-58
2021/04/30 00:52:12;;;;;;;2.27;1.90;;;20.40;31.70;;;;;;8390911;28;20043;-58
2021/04/30 00:56:12;;;;;;;3.00;1.90;;;20.40;31.70;;;;;;8394895;28;20036;-59
2021/04/30 01:00:14;;;;;;;1.97;1.77;;;20.40;31.80;;;;;;8388964;28;20401;-58
2021/04/30 01:04:14;;;;;;;;;;;20.30;31.70;;;;;;8391005;28;20078;-58
2021/04/30 01:08:15;;;;;;;2.40;1.87;;;20.40;31.70;;;;;;8390426;28;19909;-59
2021/04/30 01:12:15;;;;;;;2.43;1.83;;;20.30;31.70;;;;;;8388221;28;20160;-59
2021/04/30 01:16:16;;;;;;;2.10;1.90;;;20.30;31.70;;;;;;8388660;28;20037;-59
2021/04/30 01:20:19;;;;;;;1.97;1.80;;;20.30;31.70;;;;;;8382485;28;20405;-59
2021/04/30 01:24:20;;;;;;;2.03;1.80;;;20.30;31.70;;;;;;8394473;28;20036;-59
2021/04/30 01:28:20;;;;;;;2.10;1.92;;;20.30;31.70;;;;;;8396217;28;20025;-59
2021/04/30 01:32:21;;;;;;;3.00;1.97;;;20.30;31.70;;;;;;8400434;28;20044;-59
2021/04/30 01:36:22;;;;;;;1.80;1.60;;;20.30;31.70;;;;;;8393296;28;20028;-58
2021/04/30 01:40:27;;;;;;;2.50;1.97;;;20.30;31.70;;;;;;8395542;28;20032;-58
2021/04/30 01:44:28;;;;;;;2.80;1.80;;;20.30;31.70;;;;;;8395683;28;20039;-58
2021/04/30 01:48:30;;;;;;;1.63;1.47;;;20.30;31.70;;;;;;8393837;28;20025;-58
2021/04/30 01:52:31;;;;;;;2.17;1.95;;;20.20;31.60;;;;;;8399662;28;20048;-58
2021/04/30 01:56:33;;;;;;;3.17;1.73;;;20.30;31.70;;;;;;8395284;28;20060;-59
2021/04/30 02:00:33;;;;;;;3.83;2.13;;;20.30;31.70;;;;;;8378394;28;20444;-58
2021/04/30 02:04:35;;;;;;;3.73;2.10;;;20.20;31.70;;;;;;8366986;28;20025;-58
2021/04/30 02:08:36;;;;;;;2.45;1.85;;;20.20;31.70;;;;;;8399248;28;20032;-60
2021/04/30 02:12:36;;;;;;;3.17;2.00;;;20.20;31.70;;;;;;8394028;28;20405;-57
2021/04/30 02:16:37;;;;;;;3.33;1.50;;;20.20;31.70;;;;;;8394508;28;20067;-56
2021/04/30 02:20:37;;;;;;;1.97;1.77;;;20.20;31.70;;;;;;8394384;28;20040;-58
2021/04/30 02:24:38;;;;;;;2.00;1.67;;;20.20;31.70;;;;;;8396827;28;20033;-58
2021/04/30 02:28:39;;;;;;;1.90;1.70;;;20.20;31.70;;;;;;8361415;28;20554;-59
2021/04/30 02:32:41;;;;;;;1.92;1.60;;;20.20;31.70;;;;;;8361731;28;20045;-58
2021/04/30 02:36:41;;;;;;;;;;;20.10;31.60;;;;;;8372480;28;20435;-60
2021/04/30 02:40:44;;;;;;;2.13;1.80;;;20.20;31.60;;;;;;8393952;28;19928;-58
2021/04/30 02:44:45;;;;;;;2.05;1.80;;;20.20;31.70;;;;;;8398280;28;20036;-58
2021/04/30 02:48:47;;;;;;;2.70;2.00;;;20.10;31.60;;;;;;8391829;28;20041;-59
2021/04/30 02:52:49;;;;;;;1.98;1.77;;;20.10;31.60;;;;;;8393707;28;20055;-58
2021/04/30 02:56:50;;;;;;;3.22;2.03;;;20.10;31.60;;;;;;8393367;28;20056;-58
2021/04/30 03:00:50;;;;;;;2.90;1.70;;;20.10;31.60;;;;;;8395505;28;20020;-58
2021/04/30 03:04:51;;;;;;;2.77;2.10;;;20.10;31.60;;;;;;8392974;28;20482;-59
2021/04/30 03:08:53;;;;;;;2.40;1.70;;;20.10;31.60;;;;;;8392947;28;20070;-59
2021/04/30 03:12:54;;;;;;;3.58;2.20;;;20.10;31.60;;;;;;8390922;28;20059;-58
2021/04/30 03:16:54;;;;;;;2.50;1.63;;;20.10;31.60;;;;;;8392555;28;20477;-58
2021/04/30 03:20:55;;;;;;;2.77;1.70;;;20.10;31.60;;;;;;8396976;28;20481;-58
2021/04/30 03:24:56;;;;;;;2.13;1.93;;;20.10;31.60;;;;;;8389602;27;20112;-58
2021/04/30 03:28:56;;;;;;;2.00;1.80;;;20.10;31.50;;;;;;8392027;28;20280;-58
2021/04/30 03:32:57;;;;;;;2.03;1.80;;;20.10;31.50;;;;;;8390679;28;20055;-55
2021/04/30 03:36:57;;;;;;;2.67;2.37;;;20.10;31.50;;;;;;8396080;28;20024;-58
2021/04/30 03:40:58;;;;;;;3.23;1.70;;;20.10;31.50;;;;;;8392047;28;20064;-58
2021/04/30 03:44:59;;;;;;;2.90;2.00;;;20.10;31.50;;;;;;8389715;28;20028;-58
2021/04/30 03:49:00;;;;;;;1.73;1.60;;;20.10;31.40;;;;;;8391818;28;20035;-58
2021/04/30 03:53:00;;;;;;;2.83;2.07;;;20.10;31.40;;;;;;8396064;28;20040;-58
2021/04/30 03:57:01;;;;;;;3.27;1.93;;;20.10;31.50;;;;;;8358124;28;20033;-58
2021/04/30 04:01:02;;;;;;;2.25;1.88;;;20.10;31.40;;;;;;8380426;28;20024;-58
2021/04/30 04:05:03;;;;;;;2.20;1.80;;;20.10;31.40;;;;;;8391267;28;20029;-58
2021/04/30 04:09:04;;;;;;;2.90;1.70;;;20.10;31.40;;;;;;8389234;28;20093;-58
2021/04/30 04:13:19;;;;;;;2.80;1.80;;;20.00;31.30;;;;;;8395493;28;20052;-58
2021/04/30 04:17:20;;;;;;;4.38;1.88;;;20.10;31.30;;;;;;8391486;28;20044;-57
2021/04/30 04:21:20;;;;;;;2.43;2.10;;;20.00;31.30;;;;;;8389501;28;20033;-58
2021/04/30 04:25:21;;;;;;;3.03;1.50;;;20.00;31.30;;;;;;8390865;28;20128;-59
2021/04/30 04:29:21;;;;;;;2.80;1.50;;;20.00;31.30;;;;;;8375199;28;20540;-58
2021/04/30 04:33:22;;;;;;;2.27;1.90;;;20.00;31.30;;;;;;8384588;28;20518;-59
2021/04/30 04:37:22;;;;;;;2.43;1.87;;;20.00;31.90;;;;;;8391255;28;20032;-59
2021/04/30 04:41:23;;;;;;;2.23;1.67;;;20.00;31.30;;;;;;8390926;28;20115;-58
2021/04/30 04:45:23;;;;;;;2.47;1.93;;;20.10;31.40;;;;;;8389201;28;20105;-58
2021/04/30 04:49:24;;;;;;;1.90;1.70;;;20.00;31.30;;;;;;8399042;28;20027;-59
2021/04/30 04:53:25;;;;;;;1.60;1.50;;;20.00;31.30;;;;;;8397128;28;20060;-59
2021/04/30 04:57:25;;;;;;;2.43;2.00;;;20.00;31.30;;;;;;8395284;28;20068;-58
2021/04/30 05:01:26;;;;;;;4.90;2.00;;;20.00;31.30;;;;;;8396959;28;20433;-58
2021/04/30 05:05:27;;;;;;;2.20;1.80;;;20.00;31.30;;;;;;8401534;28;20075;-59
2021/04/30 05:09:28;;;;;;;2.63;1.90;;;20.00;31.30;;;;;;8395008;28;20041;-59
2021/04/30 05:13:28;;;;;;;2.80;1.83;;;20.00;31.30;;;;;;8396668;28;20511;-58
2021/04/30 05:17:29;;;;;;;2.47;1.67;;;20.00;31.30;;;;;;8396558;28;20044;-59
2021/04/30 05:21:29;;;;;;;2.50;2.03;;;20.00;31.30;;;;;;8399090;28;20550;-58
2021/04/30 05:25:30;;;;;;;2.63;2.20;;;20.00;31.30;;;;;;8396274;28;20516;-58
2021/04/30 05:29:32;;;;;;;2.20;2.00;;;20.00;31.30;;;;;;8396354;28;20068;-57
2021/04/30 05:33:33;;;;;;;3.03;2.10;;;20.00;31.30;;;;;;8394107;28;20043;-58
2021/04/30 05:37:34;;;;;;;3.53;2.05;;;20.00;31.30;;;;;;8396049;28;22305;-59
2021/04/30 05:41:34;;;;;;;3.07;1.77;;;20.00;31.30;;;;;;8400097;28;20025;-59
2021/04/30 05:45:35;;;;;;;3.60;1.90;;;20.00;31.30;;;;;;8393731;28;20037;-58
2021/04/30 05:49:36;;;;;;;2.93;1.80;;;20.00;31.30;;;;;;8395542;28;20039;-58
2021/04/30 05:53:36;;;;;;;1.93;1.63;;;20.00;31.30;;;;;;8394992;28;20098;-60
2021/04/30 05:57:38;;;;;;;2.13;1.73;;;20.00;31.30;;;;;;8398185;28;20511;-58
2021/04/30 06:01:38;;;;;;;;;;;20.00;31.30;;;;;;8394739;28;20492;-58
2021/04/30 06:05:39;;;;;;;2.83;1.97;;;20.00;31.30;;;;;;8394512;28;19912;-59
2021/04/30 06:09:40;;;;;;;2.00;1.80;;;20.00;31.30;;;;;;8393217;28;20033;-58
2021/04/30 06:13:40;;;;;;;2.03;1.80;;;20.00;31.30;;;;;;8395587;28;20161;-58
2021/04/30 06:17:41;;;;;;;2.57;1.80;;;20.00;31.30;;;;;;8397981;28;20543;-59
2021/04/30 06:21:42;;;;;;;3.83;1.88;;;20.00;31.30;;;;;;8393090;28;20135;-58
2021/04/30 06:25:42;;;;;;;3.23;2.30;;;20.00;31.30;;;;;;8394457;28;20031;-58
2021/04/30 06:29:43;;;;;;;2.17;1.97;;;20.00;31.20;;;;;;8394522;28;20064;-59
2021/04/30 06:33:44;;;;;;;2.53;1.80;;;20.00;31.20;;;;;;8396724;28;20524;-58
2021/04/30 06:37:44;;;;;;;2.53;2.13;;;20.00;31.20;;;;;;8393861;28;20378;-59
2021/04/30 06:41:45;;;;;;;2.03;1.83;;;20.00;31.20;;;;;;8392495;28;20386;-58
2021/04/30 06:45:45;;;;;;;3.10;2.27;;;20.00;31.20;;;;;;8391820;28;20040;-58
2021/04/30 06:49:46;;;;;;;2.50;1.90;;;20.00;31.20;;;;;;8398288;28;20066;-59
2021/04/30 06:53:47;;;;;;;2.00;1.80;;;20.00;31.10;;;;;;8393265;28;20048;-59
2021/04/30 06:57:47;;;;;;;2.83;1.80;;;20.00;31.10;;;;;;8391793;28;20068;-58
2021/04/30 07:01:48;;;;;;;2.37;1.97;;;20.00;31.10;;;;;;8392414;28;20385;-59
2021/04/30 07:05:48;;;;;;;3.60;1.73;;;20.00;31.10;;;;;;8392970;28;20473;-58
2021/04/30 07:09:49;;;;;;;3.27;2.00;;;20.00;31.10;;;;;;8395534;28;20447;-59
2021/04/30 07:13:49;;;;;;;2.53;2.13;;;20.10;31.10;;;;;;8391572;28;20098;-58
2021/04/30 07:17:50;;;;;;;2.50;2.00;;;20.00;31.10;;;;;;8392853;28;20468;-59
2021/04/30 07:21:51;;;;;;;2.27;1.70;;;20.00;31.10;;;;;;8390917;28;20043;-59
2021/04/30 07:25:51;;;;;;;2.37;2.17;;;20.10;31.10;;;;;;8396964;28;20029;-59
2021/04/30 07:29:52;;;;;;;2.43;2.10;;;20.10;31.10;;;;;;8391605;28;20106;-59
2021/04/30 07:33:52;;;;;;;2.10;1.83;;;20.10;31.10;;;;;;8390554;28;20083;-59
2021/04/30 07:37:53;;;;;;;2.30;2.10;;;20.00;31.10;;;;;;8392063;28;20036;-59
2021/04/30 07:41:54;;;;;;;2.07;1.87;;;20.10;31.20;;;;;;8396411;28;20083;-59
2021/04/30 07:45:54;;;;;;;2.38;1.83;;;20.00;31.10;;;;;;8390176;28;20498;-59
2021/04/30 07:49:55;;;;;;;3.07;2.10;;;20.00;31.20;;;;;;8391991;28;20123;-59
2021/04/30 07:53:55;;;;;;;3.60;2.23;;;20.00;31.10;;;;;;8379692;28;20073;-59
2021/04/30 07:57:56;;;;;;;2.40;1.90;;;20.00;31.10;;;;;;8357369;28;23476;-59
2021/04/30 08:01:57;;;;;;;2.20;1.80;;;20.00;31.60;;;;;;8362849;28;20029;-59
2021/04/30 08:05:57;;;;;;;2.43;2.00;;;20.10;31.10;;;;;;8382602;28;20037;-56
2021/04/30 08:09:58;;;;;;;3.23;2.40;;;20.10;31.10;;;;;;8391410;28;20064;-58
2021/04/30 08:13:59;;;;;;;2.37;1.87;;;20.10;31.00;;;;;;8391363;28;20051;-60
2021/04/30 08:17:59;;;;;;;1.80;1.70;;;20.10;31.00;;;;;;8394336;28;20127;-58
2021/04/30 08:22:00;;;;;;;3.83;2.40;;;20.20;31.00;;;;;;8390626;28;20033;-59
2021/04/30 08:26:00;;;;;;;1.80;1.67;;;20.20;31.00;;;;;;8372384;28;20031;-58
2021/04/30 08:30:01;;;;;;;2.10;1.90;;;20.20;31.00;;;;;;8366228;28;20041;-58
2021/04/30 08:34:02;;;;;;;3.20;2.67;;;20.20;31.00;;;;;;8394008;28;20065;-59
2021/04/30 08:38:04;;;;;;;2.03;1.83;;;20.20;31.00;;;;;;8393231;28;20029;-59
2021/04/30 08:42:05;;;;;;;2.60;1.80;;;20.20;31.50;;;;;;8388837;28;20447;-59
2021/04/30 08:46:05;;;;;;;3.83;2.22;;;20.20;31.00;;;;;;8390752;28;20060;-59
2021/04/30 08:50:06;;;;;;;2.40;1.80;;;20.20;31.00;;;;;;8390339;28;20040;-59
2021/04/30 08:54:08;;;;;;;2.08;1.85;;;20.20;31.00;;;;;;8393079;28;20086;-59
2021/04/30 08:58:10;;;;;;;3.55;1.80;;;20.20;31.00;;;;;;8390555;28;20037;-59
2021/04/30 09:02:11;;;;;;;2.00;1.80;;;20.30;31.00;;;;;;8390509;28;20032;-59
2021/04/30 09:06:18;;;;;;;1.90;1.60;;;20.30;31.00;;;;;;8388871;28;20027;-59
2021/04/30 09:10:19;;;;;;;2.17;1.70;;;20.30;31.00;;;;;;8394649;28;20028;-59
2021/04/30 09:14:31;;;;;;;2.22;1.85;;;20.30;31.00;;;;;;8390323;28;20055;-59
2021/04/30 09:18:32;;;;;;;;;;;20.30;31.10;;;;;;8389332;28;20127;-59
2021/04/30 09:22:35;;;;;;;;;;;20.30;31.10;;;;;;8390409;28;19913;-59
2021/04/30 09:26:35;;;;;;;2.53;2.00;;;20.30;31.10;;;;;;8389945;28;20323;-59
2021/04/30 09:30:36;;;;;;;2.33;2.13;;;20.30;31.10;;;;;;8392908;28;20098;-59
2021/04/30 09:34:38;;;;;;;2.23;2.00;;;20.30;31.10;;;;;;8390686;28;20048;-59
2021/04/30 09:38:39;;;;;;;1.50;1.40;;;20.30;31.10;;;;;;8395948;28;20585;-59
2021/04/30 09:42:40;;;;;;;2.47;1.95;;;20.30;31.10;;;;;;8386325;28;20044;-59
2021/04/30 09:46:41;;;;;;;2.03;1.63;;;20.30;31.00;;;;;;8366838;28;20029;-59
2021/04/30 09:50:44;;;;;;;2.00;1.77;;;20.30;31.00;;;;;;8394095;28;20032;-58
2021/04/30 09:54:44;;;;;;;1.90;1.70;;;20.30;31.10;;;;;;8392498;28;20048;-58
2021/04/30 09:58:45;;;;;;;2.33;1.83;;;20.30;31.10;;;;;;8394657;28;20039;-57
2021/04/30 10:02:47;;;;;;;2.33;2.00;;;20.30;31.10;;;;;;8395250;28;23209;-57
2021/04/30 10:06:54;;;;;;;2.35;1.50;;;20.40;31.10;;;;;;8397538;28;20048;-57
2021/04/30 10:10:54;;;;;;;1.60;1.50;;;20.30;31.00;;;;;;8368688;28;20048;-57
2021/04/30 10:14:55;;;;;;;1.60;1.50;;;20.40;31.10;;;;;;8378812;28;20485;-57
2021/04/30 10:18:56;;;;;;;2.17;1.83;;;20.40;31.10;;;;;;8384485;28;20036;-57
2021/04/30 10:22:57;;;;;;;2.20;2.00;;;20.40;31.10;;;;;;8382339;28;20028;-57
2021/04/30 10:26:58;;;;;;;2.08;1.88;;;20.40;31.10;;;;;;8392478;28;20097;-55
2021/04/30 10:31:10;;;;;;;1.90;1.80;;;20.40;31.10;;;;;;8394627;28;20036;-59
2021/04/30 10:35:11;;;;;;;;;;;20.40;31.20;;;;;;8381304;28;20049;-57
2021/04/30 10:39:27;;;;;;;2.30;1.77;;;20.40;31.20;;;;;;8361621;28;23275;-58
2021/04/30 10:43:29;;;;;;;2.25;1.70;;;20.40;31.30;;;;;;8398052;28;20036;-56
2021/04/30 10:47:30;;;;;;;2.90;1.80;;;20.40;31.20;;;;;;8393269;28;20498;-57
2021/04/30 10:51:31;;;;;;;2.00;1.80;;;20.40;31.20;;;;;;8391756;28;20041;-58
2021/04/30 10:55:39;;;;;;;2.17;1.88;;;20.40;31.30;;;;;;8393163;28;20139;-58
2021/04/30 10:59:46;;;;;;;2.05;1.73;;;20.40;31.30;;;;;;8396307;28;20037;-59
2021/04/30 11:04:08;;;;;;;3.03;1.73;;;20.40;31.40;;;;;;8362920;28;20025;-58
2021/04/30 11:08:09;;;;;;;2.17;1.77;;;20.40;31.40;;;;;;8387003;28;20040;-57
2021/04/30 11:12:19;;;;;;;3.10;1.80;;;20.30;31.40;;;;;;8391254;28;20091;-57
2021/04/30 11:16:39;;;;;;;2.63;1.80;;;20.40;31.50;;;;;;8392194;28;20066;-58
2021/04/30 11:20:42;;;;;;;2.40;1.83;;;20.30;31.40;;;;;;8392431;28;20275;-57
2021/04/30 11:24:46;;;;;;;2.10;1.88;;;20.30;31.40;;;;;;8395201;28;20032;-57
2021/04/30 11:28:55;;;;;;;1.95;1.75;;;20.30;31.40;;;;;;8367637;28;20099;-60
2021/04/30 11:32:58;;;;;;;2.22;1.70;;;20.30;31.50;;;;;;8376115;28;20481;-58
2021/04/30 11:37:01;;;;;;;2.10;1.80;;;20.30;31.50;;;;;;8390446;28;20032;-58
2021/04/30 11:41:02;;;;;;;2.53;2.00;;;20.30;31.50;;;;;;8396287;28;20064;-57
2021/04/30 11:45:03;;;;;;;2.92;1.85;;;20.20;31.50;;;;;;8390099;28;20401;-58
2021/04/30 11:49:05;;;;;;;2.13;1.92;;;20.20;31.50;;;;;;8391366;28;20371;-59
2021/04/30 11:53:12;;;;;;;2.58;2.22;;;20.30;31.60;;;;;;8380931;28;20103;-57
2021/04/30 11:57:13;;;;;;;1.77;1.63;;;20.20;31.60;;;;;;8334699;28;20037;-59
2021/04/30 12:01:14;;;;;;;2.10;1.90;;;20.30;31.70;;;;;;8395940;28;20117;-59
2021/04/30 12:05:15;;;;;;;3.35;2.08;;;20.20;31.70;;;;;;8391272;28;20516;-57
2021/04/30 12:09:15;;;;;;;1.90;1.67;;;20.20;31.70;;;;;;8373782;28;20049;-58
2021/04/30 12:13:19;;;;;;;1.67;1.57;;;20.20;31.70;;;;;;8364692;28;20521;-59
2021/04/30 12:17:35;;;;;;;2.90;1.75;;;20.20;31.70;;;;;;8395541;28;20090;-58
2021/04/30 12:21:35;;;;;;;1.95;1.75;;;20.20;31.70;;;;;;8384165;28;20029;-58
2021/04/30 12:25:37;;;;;;;1.93;1.70;;;20.20;31.70;;;;;;8371388;28;20121;-59
2021/04/30 12:29:49;;;;;;;2.20;1.80;;;20.20;31.80;;;;;;8368578;28;20069;-59
2021/04/30 12:33:52;;;;;;;2.33;2.10;;;20.20;31.70;;;;;;8387929;28;20040;-58
2021/04/30 12:37:53;;;;;;;2.20;1.90;;;20.20;31.70;;;;;;8395108;28;20039;-58
2021/04/30 12:41:53;;;;;;;2.53;2.13;;;20.20;31.70;;;;;;8390687;28;20033;-58
2021/04/30 12:45:55;;;;;;;1.90;1.70;;;20.10;31.70;;;;;;8388770;28;20028;-58
2021/04/30 12:49:56;;;;;;;2.33;1.80;;;20.20;31.70;;;;;;8390895;28;20086;-58
2021/04/30 12:53:57;;;;;;;1.93;1.50;;;20.20;31.80;;;;;;8393441;28;20550;-55
2021/04/30 12:58:18;;;;;;;2.25;1.65;;;20.10;31.70;;;;;;8390257;28;20044;-58
2021/04/30 13:02:19;;;;;;;1.80;1.67;;;20.20;31.80;;;;;;8390688;28;20036;-60
2021/04/30 13:06:19;;;;;;;1.70;1.60;;;20.20;31.80;;;;;;8388510;28;20041;-59
2021/04/30 13:10:25;;;;;;;1.67;1.53;;;20.10;31.80;;;;;;8393852;28;20060;-57
2021/04/30 13:14:26;;;;;;;1.70;1.60;;;20.20;31.80;;;;;;8401166;28;20094;-58
2021/04/30 13:18:32;;;;;;;2.30;1.70;;;20.20;31.80;;;;;;8395290;28;20097;-59
2021/04/30 13:22:33;;;;;;;2.38;1.70;;;20.10;31.80;;;;;;8396102;28;20127;-59
2021/04/30 13:26:33;;;;;;;2.27;1.60;;;20.10;31.80;;;;;;8396057;28;20033;-58
2021/04/30 13:30:41;;;;;;;1.90;1.40;;;20.10;31.80;;;;;;8395268;28;20040;-57
2021/04/30 13:34:43;;;;;;;1.42;1.25;;;20.10;31.80;;;;;;8400313;28;20578;-58
2021/04/30 13:38:44;;;;;;;1.60;1.40;;;20.10;31.80;;;;;;8395757;28;20443;-58
2021/04/30 13:42:47;;;;;;;1.60;1.50;;;20.10;31.80;;;;;;8369147;28;20052;-58
2021/04/30 13:46:49;;;;;;;1.52;1.33;;;20.10;31.90;;;;;;8395572;28;20029;-58
2021/04/30 13:50:50;;;;;;;1.95;1.50;;;20.10;31.90;;;;;;8399704;28;20031;-60
2021/04/30 13:54:50;;;;;;;1.60;1.40;;;20.10;31.90;;;;;;8393509;28;20056;-58
2021/04/30 13:58:51;;;;;;;1.93;1.57;;;20.10;31.90;;;;;;8395239;28;20090;-58
2021/04/30 14:02:53;;;;;;;1.50;1.40;;;20.10;31.90;;;;;;8386177;28;20040;-59
2021/04/30 14:06:54;;;;;;;1.58;1.25;;;20.10;31.90;;;;;;8363342;28;20399;-58
2021/04/30 14:10:54;;;;;;;1.57;1.47;;;20.10;31.90;;;;;;8384229;28;20036;-57
2021/04/30 14:14:55;;;;;;;2.13;1.53;;;20.10;31.90;;;;;;8336809;28;20106;-56
2021/04/30 14:18:55;;;;;;;2.00;1.57;;;20.10;31.80;;;;;;8348354;28;20119;-57
2021/04/30 14:22:56;;;;;;;1.63;1.33;;;20.10;31.80;;;;;;8380750;28;20047;-59
2021/04/30 14:26:56;;;;;;;1.90;1.50;;;20.00;31.80;;;;;;8391731;28;20029;-56
2021/04/30 14:30:57;;;;;;;1.30;1.10;;;20.10;31.90;;;;;;8360320;28;20124;-58
2021/04/30 14:34:57;;;;;;;1.40;1.30;;;20.00;31.80;;;;;;8361580;28;20064;-58
2021/04/30 14:38:58;;;;;;;3.20;1.20;;;20.00;31.80;;;;;;8366250;28;20041;-58
2021/04/30 14:42:59;;;;;;;1.75;1.02;;;20.00;31.90;;;;;;8398194;28;20097;-57
2021/04/30 14:46:59;;;;;;;2.10;1.50;;;20.00;31.90;;;;;;8385705;28;20094;-58
2021/04/30 14:51:00;;;;;;;1.33;1.17;;;20.00;31.90;;;;;;8378165;28;20547;-55
2021/04/30 14:55:00;;;;;;;1.50;1.30;;;20.00;31.90;;;;;;8370738;28;20131;-56
2021/04/30 14:59:03;;;;;;;1.20;1.10;;;20.00;31.90;;;;;;8393689;28;20037;-57
2021/04/30 15:03:03;;;;;;;1.50;1.40;;;20.00;31.80;;;;;;8365209;28;20072;-56
2021/04/30 15:07:04;;;;;;;1.53;1.20;;;20.00;31.90;;;;;;8383948;28;20045;-58
2021/04/30 15:11:06;;;;;;;1.93;1.43;;;20.00;31.90;;;;;;8392923;28;20064;-56
2021/04/30 15:15:07;;;;;;;1.30;1.20;;;20.00;31.90;;;;;;8390737;28;20044;-56
2021/04/30 15:19:08;;;;;;;;;;;20.00;31.90;;;;;;8374840;28;20044;-58
2021/04/30 15:23:08;;;;;;;1.70;1.50;;;20.00;31.90;;;;;;8387856;28;20365;-55
2021/04/30 15:27:09;;;;;;;1.37;1.10;;;19.90;31.90;;;;;;8390844;28;20564;-57
2021/04/30 15:31:14;;;;;;;1.30;1.20;;;20.00;31.90;;;;;;8391471;28;20472;-57
2021/04/30 15:35:14;;;;;;;1.27;1.17;;;19.90;31.90;;;;;;8394891;28;20057;-57
2021/04/30 15:39:15;;;;;;;1.40;1.30;;;20.00;31.90;;;;;;8358375;27;20095;-57
2021/04/30 15:43:15;;;;;;;1.40;1.30;;;19.90;31.90;;;;;;8388627;28;20036;-57
2021/04/30 15:47:16;;;;;;;1.23;1.13;;;19.90;31.90;;;;;;8391595;28;20033;-57
2021/04/30 15:51:18;;;;;;;1.73;1.23;;;19.90;32.00;;;;;;8387182;28;20042;-57
2021/04/30 15:55:19;;;;;;;1.55;1.20;;;19.90;31.90;;;;;;8396096;28;20047;-56
2021/04/30 15:59:20;;;;;;;1.52;1.10;;;19.90;31.90;;;;;;8391526;28;20076;-57
2021/04/30 16:03:20;;;;;;;1.30;1.20;;;19.90;32.00;;;;;;8389935;28;20055;-58
2021/04/30 16:07:21;;;;;;;1.30;1.10;;;19.90;32.00;;;;;;8391177;28;20025;-58
2021/04/30 16:11:22;;;;;;;0.97;0.90;;;19.90;32.00;;;;;;8395530;28;20043;-57
2021/04/30 16:15:23;;;;;;;1.33;1.20;;;19.90;32.00;;;;;;8359027;28;20037;-58
2021/04/30 16:19:23;;;;;;;1.58;1.20;;;19.90;32.00;;;;;;8378368;28;20043;-58
2021/04/30 16:23:25;;;;;;;1.40;1.17;;;19.90;32.00;;;;;;8390781;28;20031;-58
2021/04/30 16:27:25;;;;;;;1.52;1.15;;;19.90;32.00;;;;;;8365148;28;20059;-58
2021/04/30 16:31:26;;;;;;;1.00;1.00;;;19.90;32.00;;;;;;8362121;28;20033;-58
2021/04/30 16:35:27;;;;;;;1.67;1.30;;;19.80;32.00;;;;;;8381555;28;20072;-58
2021/04/30 16:39:27;;;;;;;2.13;1.20;;;19.90;32.00;;;;;;8388323;28;20512;-58
2021/04/30 16:43:28;;;;;;;1.10;1.10;;;19.80;32.00;;;;;;8391409;28;20362;-58
2021/04/30 16:47:28;;;;;;;1.30;1.20;;;19.80;32.00;;;;;;8401924;28;20093;-58
2021/04/30 16:51:31;;;;;;;1.27;1.10;;;19.80;32.00;;;;;;8395477;28;20040;-58
2021/04/30 16:55:32;;;;;;;1.63;1.15;;;19.80;32.00;;;;;;8396536;28;20058;-58
2021/04/30 16:59:33;;;;;;;1.97;1.33;;;19.80;32.10;;;;;;8396060;28;20024;-57
2021/04/30 17:03:33;;;;;;;1.50;1.40;;;19.80;32.10;;;;;;8399782;28;20037;-58
2021/04/30 17:07:34;;;;;;;1.30;1.20;;;19.80;32.10;;;;;;8397069;28;20040;-58
2021/04/30 17:11:34;;;;;;;1.77;1.37;;;19.80;32.10;;;;;;8395952;28;20120;-58
2021/04/30 17:15:35;;;;;;;1.30;1.20;;;19.80;32.10;;;;;;8394827;28;20473;-58
2021/04/30 17:19:35;;;;;;;1.33;1.20;;;19.80;32.20;;;;;;8396563;28;20047;-58
2021/04/30 17:23:36;;;;;;;1.30;1.20;;;19.80;32.20;;;;;;8378886;28;20029;-58
2021/04/30 17:27:37;;;;;;;1.47;1.37;;;19.80;32.20;;;;;;8391917;28;20064;-58
2021/04/30 17:31:38;;;;;;;2.20;1.70;;;19.70;32.10;;;;;;8367728;28;20318;-58
2021/04/30 17:35:38;;;;;;;2.65;1.60;;;19.80;32.20;;;;;;8329903;28;20102;-58
2021/04/30 17:39:39;;;;;;;3.43;1.60;;;19.70;32.10;;;;;;8332180;28;20045;-58
2021/04/30 17:43:40;;;;;;;1.63;1.53;;;19.70;32.10;;;;;;8372493;28;20036;-58
2021/04/30 17:47:41;;;;;;;1.80;1.50;;;19.70;32.10;;;;;;8394918;28;20389;-58
2021/04/30 17:51:42;;;;;;;2.70;1.60;;;19.70;32.10;;;;;;8392845;28;20090;-58
2021/04/30 17:55:42;;;;;;;1.87;1.40;;;19.70;32.10;;;;;;8398372;28;20048;-58
2021/04/30 17:59:43;;;;;;;1.60;1.37;;;19.70;32.10;;;;;;8393593;28;20128;-58
2021/04/30 18:03:43;;;;;;;1.70;1.60;;;19.70;32.10;;;;;;8392980;28;20035;-58
2021/04/30 18:07:44;;;;;;;1.63;1.50;;;19.70;32.10;;;;;;8395023;28;20032;-57
2021/04/30 18:11:45;;;;;;;1.43;1.20;;;19.70;32.10;;;;;;8394369;28;20086;-58
2021/04/30 18:15:45;;;;;;;1.30;1.20;;;19.70;32.20;;;;;;8397154;28;20048;-59
2021/04/30 18:19:47;;;;;;;1.97;1.60;;;19.70;32.20;;;;;;8394196;28;20573;-58
2021/04/30 18:23:47;;;;;;;2.05;1.30;;;19.70;32.20;;;;;;8370112;28;20040;-58
2021/04/30 18:27:49;;;;;;;2.33;1.50;;;19.60;32.20;;;;;;8391245;28;20123;-58
2021/04/30 18:31:50;;;;;;;1.40;1.30;;;19.60;32.20;;;;;;8398713;28;20025;-58
2021/04/30 18:35:50;;;;;;;1.83;1.38;;;19.60;32.20;;;;;;8394120;28;20047;-58
2021/04/30 18:39:51;;;;;;;1.70;1.27;;;19.60;32.20;;;;;;8392225;28;20043;-59
2021/04/30 18:43:51;;;;;;;2.07;1.87;;;19.60;32.20;;;;;;8394079;28;20040;-57
2021/04/30 18:47:53;;;;;;;2.20;1.50;;;19.60;32.30;;;;;;8392854;28;20047;-58
2021/04/30 18:51:54;;;;;;;1.73;1.50;;;19.60;32.30;;;;;;8396506;28;20037;-58
2021/04/30 18:55:55;;;;;;;;;;;19.60;32.30;;;;;;8393912;28;20056;-58
2021/04/30 18:59:55;;;;;;;2.00;1.63;;;19.60;32.30;;;;;;8393359;28;19915;-58
2021/04/30 19:03:56;;;;;;;1.30;1.20;;;19.60;32.30;;;;;;8391755;28;20375;-58
2021/04/30 19:07:59;;;;;;;3.27;2.00;;;19.60;32.30;;;;;;8397398;28;20477;-58
2021/04/30 19:12:00;;;;;;;4.47;1.73;;;19.60;32.30;;;;;;8391336;28;20040;-58
2021/04/30 19:16:01;;;;;;;1.37;1.27;;;19.60;32.30;;;;;;8375043;28;20049;-57
2021/04/30 19:20:03;;;;;;;2.80;2.03;;;19.60;32.30;;;;;;8368838;28;20496;-58
2021/04/30 19:24:05;;;;;;;1.55;1.45;;;19.60;32.40;;;;;;8395171;28;20482;-58
2021/04/30 19:28:07;;;;;;;1.88;1.35;;;19.60;32.40;;;;;;8392186;28;20056;-58
2021/04/30 19:32:08;;;;;;;1.75;1.65;;;19.50;32.40;;;;;;8392225;28;20033;-58
2021/04/30 19:36:09;;;;;;;1.67;1.50;;;19.50;32.40;;;;;;8390509;28;20642;-58
2021/04/30 19:40:10;;;;;;;2.13;1.60;;;19.50;32.40;;;;;;8391740;28;20074;-58
2021/04/30 19:44:11;;;;;;;1.73;1.50;;;19.50;32.30;;;;;;8396525;28;20356;-58
2021/04/30 19:48:11;;;;;;;1.50;1.40;;;19.50;32.40;;;;;;8390186;28;20036;-58
2021/04/30 19:52:12;;;;;;;2.50;1.40;;;19.50;32.40;;;;;;8391776;28;20052;-57
2021/04/30 19:56:13;;;;;;;2.03;1.50;;;19.50;33.00;;;;;;8391900;28;20055;-59
2021/04/30 20:00:16;;;;;;;1.97;1.53;;;19.50;32.40;;;;;;8394129;28;20091;-57
2021/04/30 20:04:19;;;;;;;2.20;1.75;;;19.50;32.40;;;;;;8391246;28;20375;-58
2021/04/30 20:08:19;;;;;;;1.75;1.33;;;19.50;32.50;;;;;;8391233;28;20032;-57
2021/04/30 20:12:21;;;;;;;2.33;1.67;;;19.50;32.50;;;;;;8389967;28;20040;-58
2021/04/30 20:16:21;;;;;;;2.20;2.00;;;19.50;32.50;;;;;;8391406;28;20029;-59
2021/04/30 20:20:23;;;;;;;1.67;1.57;;;19.50;32.50;;;;;;8395042;28;20087;-59
2021/04/30 20:24:23;;;;;;;2.15;1.90;;;19.40;32.40;;;;;;8389034;28;20440;-56
2021/04/30 20:28:24;;;;;;;2.40;1.67;;;19.50;32.50;;;;;;8391165;28;20136;-59
2021/04/30 20:32:24;;;;;;;2.00;1.70;;;19.50;32.50;;;;;;8389998;28;20466;-58
2021/04/30 20:36:25;;;;;;;3.27;1.40;;;19.50;32.50;;;;;;8393614;28;20035;-58
2021/04/30 20:40:26;;;;;;;2.13;1.67;;;19.50;32.60;;;;;;8390940;28;20114;-58
2021/04/30 20:44:26;;;;;;;2.60;1.77;;;19.40;32.50;;;;;;8390685;28;20570;-58
2021/04/30 20:48:27;;;;;;;1.80;1.70;;;19.40;32.50;;;;;;8389095;28;20397;-59
2021/04/30 20:52:29;;;;;;;1.60;1.50;;;19.40;32.50;;;;;;8395420;28;20370;-58
2021/04/30 20:56:29;;;;;;;2.08;1.83;;;19.40;32.50;;;;;;8390941;28;20063;-58
2021/04/30 21:00:30;;;;;;;2.60;1.73;;;19.40;32.60;;;;;;8341533;28;20048;-58